createdAt,value
2023-05-23T00:01:10.187Z,39.00
2023-05-23T00:03:37.437Z,40.50
2023-05-23T00:06:06.997Z,36.53
2023-05-23T00:08:33.718Z,37.80
2023-05-23T00:11:00.347Z,37.93
2023-05-23T00:13:26.988Z,37.70
2023-05-23T00:15:53.508Z,38.40
2023-05-23T00:18:20.283Z,36.07
2023-05-23T00:20:47.043Z,36.47
2023-05-23T00:23:19.356Z,36.87
2023-05-23T00:25:52.725Z,37.23
2023-05-23T00:28:19.814Z,40.13
2023-05-23T00:30:46.370Z,39.60
2023-05-23T00:33:14.412Z,39.73
2023-05-23T00:35:41.951Z,41.00
2023-05-23T00:38:11.373Z,39.53
2023-05-23T00:40:37.895Z,39.93
2023-05-23T00:43:04.399Z,39.13
2023-05-23T00:45:31.155Z,41.70
2023-05-23T00:48:00.169Z,39.47
2023-05-23T00:50:29.843Z,39.27
2023-05-23T00:52:59.014Z,37.80
2023-05-23T00:55:25.815Z,40.47
2023-05-23T00:57:57.052Z,39.43
2023-05-23T01:00:25.295Z,40.40
2023-05-23T01:02:53.414Z,42.13
2023-05-23T01:05:22.727Z,39.80
2023-05-23T01:07:51.201Z,41.70
2023-05-23T01:10:22.135Z,41.17
2023-05-23T01:12:57.989Z,42.37
2023-05-23T01:15:32.897Z,40.07
2023-05-23T01:18:04.382Z,39.90
2023-05-23T01:20:45.185Z,42.53
2023-05-23T01:23:41.591Z,41.47
2023-05-23T01:26:27.594Z,38.33
2023-05-23T01:29:11.808Z,39.67
2023-05-23T01:31:45.135Z,38.20
2023-05-23T01:34:13.877Z,40.43
2023-05-23T01:36:42.933Z,42.77
2023-05-23T01:39:10.512Z,39.90
2023-05-23T01:41:37.366Z,38.93
2023-05-23T01:44:05.697Z,39.23
2023-05-23T01:46:34.229Z,36.83
2023-05-23T01:49:02.723Z,39.50
2023-05-23T01:51:30.548Z,38.03
2023-05-23T01:53:57.796Z,35.43
2023-05-23T01:56:24.984Z,38.20
2023-05-23T01:58:51.783Z,39.07
2023-05-23T02:01:18.793Z,37.03
2023-05-23T02:03:45.541Z,37.83
2023-05-23T02:06:12.160Z,39.53
2023-05-23T02:08:38.967Z,38.03
2023-05-23T02:11:05.596Z,37.77
2023-05-23T02:13:32.058Z,35.70
2023-05-23T02:15:58.576Z,34.07
2023-05-23T02:18:26.281Z,36.50
2023-05-23T02:20:52.812Z,38.70
2023-05-23T02:23:19.303Z,37.90
2023-05-23T02:25:45.838Z,37.53
2023-05-23T02:28:12.937Z,36.07
2023-05-23T02:30:39.848Z,34.73
2023-05-23T02:33:07.115Z,34.47
2023-05-23T02:35:34.320Z,37.63
2023-05-23T02:38:00.962Z,35.93
2023-05-23T02:40:27.447Z,35.27
2023-05-23T02:42:57.287Z,36.27
2023-05-23T02:45:24.266Z,36.17
2023-05-23T02:47:51.259Z,37.13
2023-05-23T02:50:17.791Z,38.17
2023-05-23T02:52:44.627Z,37.27
2023-05-23T02:55:11.310Z,35.67
2023-05-23T02:57:42.448Z,36.23
2023-05-23T03:00:10.262Z,37.07
2023-05-23T03:02:36.912Z,36.30
2023-05-23T03:05:04.054Z,35.83
2023-05-23T03:07:30.697Z,35.37
2023-05-23T03:09:57.336Z,34.43
2023-05-23T03:12:24.001Z,34.63
2023-05-23T03:14:50.768Z,34.53
2023-05-23T03:17:17.420Z,34.80
2023-05-23T03:19:44.053Z,35.70
2023-05-23T03:22:10.667Z,34.53
2023-05-23T03:24:37.285Z,35.20
2023-05-23T03:27:04.414Z,35.00
2023-05-23T03:29:31.077Z,35.17
2023-05-23T03:31:57.802Z,34.67
2023-05-23T03:34:26.553Z,33.03
2023-05-23T03:36:53.402Z,34.83
2023-05-23T03:39:20.253Z,34.43
2023-05-23T03:41:46.957Z,32.97
2023-05-23T03:44:14.790Z,33.57
2023-05-23T03:46:42.268Z,31.37
2023-05-23T03:49:09.263Z,30.80
2023-05-23T03:51:36.084Z,27.53
2023-05-23T03:54:03.299Z,26.90
2023-05-23T03:56:30.013Z,27.60
2023-05-23T03:58:56.690Z,25.67
2023-05-23T04:01:23.334Z,24.57
2023-05-23T04:03:50.358Z,23.60
2023-05-23T04:06:18.277Z,24.00
2023-05-23T04:08:46.150Z,23.30
2023-05-23T04:11:13.412Z,24.13
2023-05-23T04:13:42.801Z,24.57
2023-05-23T04:16:10.802Z,22.83
2023-05-23T04:18:39.424Z,24.73
2023-05-23T04:21:07.574Z,24.40
2023-05-23T04:23:38.504Z,23.83
2023-05-23T04:26:06.612Z,23.20
2023-05-23T04:28:35.682Z,22.10
2023-05-23T04:31:03.231Z,23.73
2023-05-23T04:33:34.180Z,23.27
2023-05-23T04:36:03.056Z,21.07
2023-05-23T04:38:29.737Z,22.30
2023-05-23T04:40:58.003Z,21.37
2023-05-23T04:43:54.152Z,21.93
2023-05-23T04:46:27.646Z,20.23
2023-05-23T04:49:11.150Z,21.27
2023-05-23T04:51:38.387Z,21.73
2023-05-23T04:54:31.277Z,20.33
2023-05-23T04:57:00.198Z,21.73
2023-05-23T04:59:28.351Z,21.47
2023-05-23T05:01:54.969Z,19.83
2023-05-23T05:04:23.164Z,20.13
2023-05-23T05:06:50.490Z,20.27
2023-05-23T05:09:18.040Z,20.60
2023-05-23T05:11:44.639Z,18.47
2023-05-23T05:14:11.213Z,20.33
2023-05-23T05:16:37.972Z,18.37
2023-05-23T05:19:04.633Z,18.40
2023-05-23T05:21:31.664Z,17.60
2023-05-23T05:23:59.896Z,17.27
2023-05-23T05:26:26.920Z,17.20
2023-05-23T05:28:54.105Z,16.60
2023-05-23T05:31:22.052Z,16.93
2023-05-23T05:33:49.900Z,15.73
2023-05-23T05:36:16.597Z,15.47
2023-05-23T05:38:44.802Z,14.90
2023-05-23T05:41:11.998Z,14.97
2023-05-23T05:43:42.572Z,13.63
2023-05-23T05:46:09.148Z,13.00
2023-05-23T05:48:35.683Z,13.47
2023-05-23T05:51:06.498Z,12.63
2023-05-23T05:53:34.251Z,11.97
2023-05-23T05:56:03.092Z,11.53
2023-05-23T05:58:31.359Z,11.37
2023-05-23T06:01:01.291Z,11.33
2023-05-23T06:03:28.056Z,12.10
2023-05-23T06:05:55.662Z,12.40
2023-05-23T06:08:22.332Z,12.07
2023-05-23T06:10:49.311Z,11.60
2023-05-23T06:13:16.735Z,12.13
2023-05-23T06:15:46.820Z,11.67
2023-05-23T06:18:14.027Z,11.23
2023-05-23T06:20:41.106Z,11.70
2023-05-23T06:23:12.716Z,12.13
2023-05-23T06:25:39.972Z,11.67
2023-05-23T06:28:06.552Z,10.57
2023-05-23T06:30:35.461Z,11.67
2023-05-23T06:33:02.249Z,10.70
2023-05-23T06:35:28.803Z,10.80
2023-05-23T06:37:55.336Z,10.73
2023-05-23T06:40:21.880Z,9.73
2023-05-23T06:42:50.092Z,9.37
2023-05-23T06:45:42.558Z,8.23
2023-05-23T06:48:13.539Z,8.47
2023-05-23T06:50:41.053Z,8.93
2023-05-23T06:53:08.851Z,8.80
2023-05-23T06:55:35.422Z,8.93
2023-05-23T06:58:04.291Z,8.27
2023-05-23T07:00:31.929Z,7.60
2023-05-23T07:03:09.090Z,6.40
2023-05-23T07:05:39.309Z,6.17
2023-05-23T07:08:11.445Z,6.20
2023-05-23T07:10:41.690Z,5.97
2023-05-23T07:13:21.740Z,5.70
2023-05-23T07:15:48.342Z,5.97
2023-05-23T07:18:14.957Z,5.83
2023-05-23T07:20:42.120Z,5.67
2023-05-23T07:23:16.733Z,5.83
2023-05-23T07:26:00.633Z,5.43
2023-05-23T07:28:34.403Z,5.23
2023-05-23T07:31:01.421Z,5.50
2023-05-23T07:33:29.044Z,5.37
2023-05-23T07:36:00.815Z,5.57
2023-05-23T07:38:27.338Z,5.43
2023-05-23T07:41:03.178Z,5.77
2023-05-23T07:43:37.202Z,5.47
2023-05-23T07:46:03.884Z,5.80
2023-05-23T07:48:30.541Z,6.43
2023-05-23T07:50:57.615Z,5.40
2023-05-23T07:53:24.402Z,5.23
2023-05-23T07:55:52.195Z,5.20
2023-05-23T07:58:20.175Z,5.47
2023-05-23T08:00:47.876Z,5.40
2023-05-23T08:03:32.455Z,6.10
2023-05-23T08:06:07.501Z,5.57
2023-05-23T08:08:34.406Z,5.73
2023-05-23T08:11:01.024Z,5.83
2023-05-23T08:13:34.778Z,5.47
2023-05-23T08:16:19.929Z,5.83
2023-05-23T08:18:47.031Z,5.20
2023-05-23T08:21:13.584Z,5.40
2023-05-23T08:23:45.853Z,6.30
2023-05-23T08:26:15.911Z,5.40
2023-05-23T08:28:43.215Z,5.80
2023-05-23T08:31:09.714Z,5.83
2023-05-23T08:33:36.299Z,6.17
2023-05-23T08:36:02.845Z,6.60
2023-05-23T08:38:29.584Z,5.90
2023-05-23T08:41:18.479Z,6.07
2023-05-23T08:43:46.297Z,5.90
2023-05-23T08:46:18.831Z,5.87
2023-05-23T08:48:52.164Z,6.23
2023-05-23T08:51:21.649Z,5.90
2023-05-23T08:53:52.898Z,6.00
2023-05-23T08:56:23.588Z,5.83
2023-05-23T08:58:53.122Z,5.53
2023-05-23T09:01:23.491Z,4.80
2023-05-23T09:03:53.352Z,4.90
2023-05-23T09:06:35.438Z,4.80
2023-05-23T09:09:02.091Z,4.97
2023-05-23T09:11:29.089Z,4.80
2023-05-23T09:13:57.796Z,4.50
2023-05-23T09:16:24.480Z,4.87
2023-05-23T09:18:55.790Z,4.43
2023-05-23T09:21:24.621Z,4.07
2023-05-23T09:24:00.675Z,4.37
2023-05-23T09:26:28.329Z,4.40
2023-05-23T09:28:59.382Z,4.73
2023-05-23T09:31:32.495Z,4.37
2023-05-23T09:34:01.916Z,4.37
2023-05-23T09:36:30.498Z,4.60
2023-05-23T09:38:57.205Z,4.63
2023-05-23T09:41:25.133Z,4.13
2023-05-23T09:43:54.086Z,4.40
2023-05-23T09:46:21.629Z,3.67
2023-05-23T09:48:51.726Z,4.70
2023-05-23T09:51:23.260Z,4.37
2023-05-23T09:53:51.104Z,4.63
2023-05-23T09:56:18.145Z,4.40
2023-05-23T09:58:49.386Z,4.10
2023-05-23T10:01:16.364Z,4.47
2023-05-23T10:03:50.408Z,4.07
2023-05-23T10:06:24.151Z,4.43
2023-05-23T10:09:05.078Z,4.47
2023-05-23T10:11:34.755Z,4.93
2023-05-23T10:14:04.970Z,4.80
2023-05-23T10:16:48.240Z,4.43
2023-05-23T10:19:20.689Z,4.63
2023-05-23T10:21:55.185Z,5.20
2023-05-23T10:24:22.462Z,4.90
2023-05-23T10:26:49.193Z,5.03
2023-05-23T10:29:15.813Z,5.13
2023-05-23T10:31:43.518Z,4.90
2023-05-23T10:34:28.778Z,5.00
2023-05-23T10:37:03.037Z,4.97
2023-05-23T10:40:00.326Z,5.33
2023-05-23T10:42:49.890Z,6.03
2023-05-23T10:45:24.285Z,5.73
2023-05-23T10:47:53.317Z,5.73
2023-05-23T10:50:34.122Z,6.03
2023-05-23T10:53:05.703Z,6.70
2023-05-23T10:55:34.711Z,6.40
2023-05-23T10:58:16.106Z,6.63
2023-05-23T11:01:21.380Z,6.40
2023-05-23T11:03:49.308Z,6.17
2023-05-23T11:06:35.484Z,5.93
2023-05-23T11:09:07.028Z,6.03
2023-05-23T11:11:53.120Z,6.30
2023-05-23T11:14:40.737Z,6.70
2023-05-23T11:17:13.276Z,6.30
2023-05-23T11:19:40.407Z,6.33
2023-05-23T11:22:10.049Z,6.50
2023-05-23T11:24:55.932Z,6.83
2023-05-23T11:27:34.544Z,6.70
2023-05-23T11:30:13.300Z,7.83
2023-05-23T11:32:40.152Z,6.93
2023-05-23T11:35:11.005Z,6.83
2023-05-23T11:37:40.862Z,6.40
2023-05-23T11:40:27.130Z,8.17
2023-05-23T11:42:54.399Z,7.83
2023-05-23T11:45:22.662Z,6.93
2023-05-23T11:47:52.083Z,6.50
2023-05-23T11:50:20.444Z,6.53
2023-05-23T11:52:51.511Z,7.13
2023-05-23T11:55:19.692Z,8.00
2023-05-23T11:57:46.231Z,8.30
2023-05-23T12:00:13.997Z,7.10
2023-05-23T12:02:44.734Z,6.97
2023-05-23T12:05:13.870Z,6.57
2023-05-23T12:07:42.010Z,7.00
2023-05-23T12:10:12.111Z,7.27
2023-05-23T12:12:38.846Z,8.17
2023-05-23T12:15:05.791Z,7.17
2023-05-23T12:17:33.515Z,8.07
2023-05-23T12:20:00.473Z,8.10
2023-05-23T12:22:28.230Z,7.67
2023-05-23T12:24:56.258Z,8.30
2023-05-23T12:27:30.542Z,7.93
2023-05-23T12:30:09.547Z,8.53
2023-05-23T12:32:43.504Z,9.60
2023-05-23T12:35:13.155Z,8.47
2023-05-23T12:37:42.879Z,8.50
2023-05-23T12:40:17.806Z,8.33
2023-05-23T12:42:53.793Z,8.50
2023-05-23T12:45:30.762Z,9.10
2023-05-23T12:47:57.490Z,8.37
2023-05-23T12:50:24.168Z,8.40
2023-05-23T12:52:50.784Z,8.13
2023-05-23T12:55:17.551Z,8.23
2023-05-23T12:57:44.364Z,8.33
2023-05-23T13:00:11.769Z,8.40
2023-05-23T13:02:39.380Z,7.80
2023-05-23T13:05:06.336Z,7.63
2023-05-23T13:07:32.976Z,7.50
2023-05-23T13:09:59.720Z,8.57
2023-05-23T13:12:26.301Z,8.43
2023-05-23T13:14:52.976Z,8.77
2023-05-23T13:17:19.529Z,8.33
2023-05-23T13:19:46.397Z,8.33
2023-05-23T13:22:13.247Z,9.17
2023-05-23T13:24:40.739Z,9.37
2023-05-23T13:27:07.640Z,9.23
2023-05-23T13:29:34.517Z,8.50
2023-05-23T13:32:01.391Z,9.30
2023-05-23T13:34:28.696Z,9.03
2023-05-23T13:36:55.674Z,9.27
2023-05-23T13:39:22.821Z,9.23
2023-05-23T13:41:51.478Z,9.47
2023-05-23T13:44:18.106Z,9.20
2023-05-23T13:46:44.756Z,8.63
2023-05-23T13:49:11.347Z,8.77
2023-05-23T13:51:38.160Z,9.10
2023-05-23T13:54:06.038Z,9.40
2023-05-23T13:56:33.598Z,9.63
2023-05-23T13:59:00.493Z,8.90
2023-05-23T14:01:27.276Z,9.67
2023-05-23T14:03:54.372Z,9.33
2023-05-23T14:06:21.324Z,8.93
2023-05-23T14:08:47.857Z,8.60
2023-05-23T14:11:14.454Z,8.60
2023-05-23T14:13:40.974Z,8.93
2023-05-23T14:16:07.549Z,8.50
2023-05-23T14:18:34.120Z,8.70
2023-05-23T14:21:00.641Z,8.87
2023-05-23T14:23:27.134Z,9.40
2023-05-23T14:25:53.666Z,8.83
2023-05-23T14:28:20.265Z,9.63
2023-05-23T14:30:46.787Z,8.90
2023-05-23T14:33:13.360Z,8.93
2023-05-23T14:35:40.131Z,9.63
2023-05-23T14:38:06.913Z,9.87
2023-05-23T14:40:33.430Z,9.17
2023-05-23T14:42:59.979Z,9.40
2023-05-23T14:45:26.607Z,9.37
2023-05-23T14:47:53.191Z,9.20
2023-05-23T14:50:19.747Z,9.33
2023-05-23T14:52:46.316Z,8.17
2023-05-23T14:55:12.905Z,8.63
2023-05-23T14:57:39.541Z,8.90
2023-05-23T15:00:06.708Z,8.63
2023-05-23T15:02:33.389Z,8.40
2023-05-23T15:05:00.048Z,8.27
2023-05-23T15:07:27.058Z,7.63
2023-05-23T15:09:53.677Z,7.47
2023-05-23T15:12:20.909Z,6.27
2023-05-23T15:14:47.579Z,6.10
2023-05-23T15:17:19.814Z,5.50
2023-05-23T15:19:46.502Z,6.50
2023-05-23T15:22:29.851Z,5.57
2023-05-23T15:25:00.651Z,6.47
2023-05-23T15:27:27.191Z,5.83
2023-05-23T15:29:53.709Z,5.90
2023-05-23T15:32:20.439Z,6.30
2023-05-23T15:34:47.117Z,5.97
2023-05-23T15:37:13.625Z,6.87
2023-05-23T15:39:40.295Z,7.93
2023-05-23T15:42:06.974Z,8.57
2023-05-23T15:44:33.543Z,8.70
2023-05-23T15:47:00.070Z,9.10
2023-05-23T15:49:27.336Z,9.40
2023-05-23T15:51:55.173Z,9.80
2023-05-23T15:54:22.304Z,9.27
2023-05-23T15:56:48.936Z,9.43
2023-05-23T15:59:15.471Z,9.43
2023-05-23T16:01:42.118Z,8.83
2023-05-23T16:04:08.784Z,10.20
2023-05-23T16:06:36.560Z,9.60
2023-05-23T16:09:03.558Z,9.27
2023-05-23T16:11:30.275Z,10.07
2023-05-23T16:13:56.810Z,9.57
2023-05-23T16:16:23.401Z,9.47
2023-05-23T16:18:50.024Z,9.93
2023-05-23T16:21:20.422Z,9.33
2023-05-23T16:23:48.466Z,9.70
2023-05-23T16:26:16.174Z,9.80
2023-05-23T16:28:43.604Z,9.23
2023-05-23T16:31:14.695Z,8.73
2023-05-23T16:33:41.370Z,8.50
2023-05-23T16:36:08.169Z,9.13
2023-05-23T16:38:34.691Z,9.00
2023-05-23T16:41:01.535Z,8.20
2023-05-23T16:43:28.211Z,8.60
2023-05-23T16:45:54.726Z,9.77
2023-05-23T16:48:22.117Z,8.50
2023-05-23T16:50:48.689Z,11.80
2023-05-23T16:53:15.221Z,9.20
2023-05-23T16:55:41.891Z,8.93
2023-05-23T16:58:08.805Z,9.73
2023-05-23T17:00:36.333Z,9.07
2023-05-23T17:03:02.933Z,9.03
2023-05-23T17:05:29.472Z,10.00
2023-05-23T17:07:56.150Z,9.70
2023-05-23T17:10:22.783Z,9.30
2023-05-23T17:12:49.354Z,8.73
2023-05-23T17:15:15.906Z,8.60
2023-05-23T17:17:42.589Z,8.63
2023-05-23T17:20:10.008Z,9.33
2023-05-23T17:22:40.518Z,9.23
2023-05-23T17:25:07.469Z,9.10
2023-05-23T17:27:33.997Z,8.33
2023-05-23T17:30:04.354Z,8.97
2023-05-23T17:32:30.912Z,9.03
2023-05-23T17:34:57.438Z,8.70
2023-05-23T17:37:25.806Z,8.20
2023-05-23T17:39:53.670Z,8.53
2023-05-23T17:42:21.852Z,8.37
2023-05-23T17:44:48.352Z,8.43
2023-05-23T17:47:14.899Z,7.97
2023-05-23T17:49:41.804Z,8.53
2023-05-23T17:52:09.998Z,8.37
2023-05-23T17:54:37.700Z,9.13
2023-05-23T17:57:05.154Z,9.03
2023-05-23T17:59:32.825Z,8.77
2023-05-23T18:02:00.158Z,9.40
2023-05-23T18:04:26.746Z,9.27
2023-05-23T18:06:53.331Z,8.70
2023-05-23T18:09:19.918Z,8.90
2023-05-23T18:11:46.506Z,8.70
2023-05-23T18:14:13.020Z,8.13
2023-05-23T18:16:39.612Z,8.63
2023-05-23T18:19:06.434Z,9.60
2023-05-23T18:21:34.661Z,9.23
2023-05-23T18:24:02.709Z,8.80
2023-05-23T18:26:29.382Z,9.27
2023-05-23T18:28:56.045Z,9.70
2023-05-23T18:31:22.585Z,9.50
2023-05-23T18:33:49.141Z,9.53
2023-05-23T18:36:15.752Z,9.83
2023-05-23T18:38:42.374Z,9.83
2023-05-23T18:41:12.565Z,10.83
2023-05-23T18:43:41.227Z,11.27
2023-05-23T18:46:07.829Z,10.57
2023-05-23T18:48:35.910Z,10.53
2023-05-23T18:51:02.767Z,12.33
2023-05-23T18:53:29.342Z,12.23
2023-05-23T18:55:55.948Z,12.57
2023-05-23T18:58:22.479Z,12.27
2023-05-23T19:00:49.043Z,12.50
2023-05-23T19:03:16.772Z,12.77
2023-05-23T19:05:43.503Z,14.43
2023-05-23T19:08:10.046Z,13.63
2023-05-23T19:10:36.692Z,14.00
2023-05-23T19:13:03.826Z,16.73
2023-05-23T19:15:30.398Z,14.60
2023-05-23T19:17:57.000Z,14.93
2023-05-23T19:20:23.553Z,15.13
2023-05-23T19:22:52.346Z,14.97
2023-05-23T19:25:20.347Z,15.23
2023-05-23T19:27:46.875Z,15.30
2023-05-23T19:30:13.489Z,15.73
2023-05-23T19:32:40.166Z,15.07
2023-05-23T19:35:08.195Z,14.90
2023-05-23T19:37:34.988Z,15.20
2023-05-23T19:40:01.841Z,15.03
2023-05-23T19:42:28.480Z,15.97
2023-05-23T19:44:55.019Z,15.20
2023-05-23T19:47:21.803Z,15.10
2023-05-23T19:49:48.431Z,15.87
2023-05-23T19:52:14.933Z,15.00
2023-05-23T19:54:41.845Z,15.00
2023-05-23T19:57:08.706Z,15.87
2023-05-23T19:59:35.356Z,15.07
2023-05-23T20:02:01.995Z,15.13
2023-05-23T20:04:28.597Z,15.93
2023-05-23T20:06:56.032Z,15.50
2023-05-23T20:09:22.963Z,15.60
2023-05-23T20:11:49.473Z,15.53
2023-05-23T20:14:16.063Z,17.00
2023-05-23T20:16:42.667Z,16.23
2023-05-23T20:19:09.966Z,16.50
2023-05-23T20:21:36.709Z,17.03
2023-05-23T20:24:03.363Z,16.37
2023-05-23T20:26:29.906Z,16.43
2023-05-23T20:28:56.572Z,17.00
2023-05-23T20:31:23.150Z,17.00
2023-05-23T20:33:49.849Z,16.57
2023-05-23T20:36:19.578Z,17.53
2023-05-23T20:38:46.718Z,17.60
2023-05-23T20:41:14.209Z,16.63
2023-05-23T20:43:40.885Z,17.50
2023-05-23T20:46:09.848Z,17.27
2023-05-23T20:48:36.412Z,17.67
2023-05-23T20:51:05.631Z,17.03
2023-05-23T20:53:32.221Z,17.60
2023-05-23T20:55:58.920Z,17.03
2023-05-23T20:58:25.829Z,17.93
2023-05-23T21:00:52.898Z,17.07
2023-05-23T21:03:19.798Z,17.63
2023-05-23T21:05:46.332Z,18.63
2023-05-23T21:08:12.850Z,17.77
2023-05-23T21:10:39.547Z,17.10
2023-05-23T21:13:06.750Z,19.13
2023-05-23T21:15:33.928Z,18.87
2023-05-23T21:18:00.499Z,19.57
2023-05-23T21:20:28.904Z,20.57
2023-05-23T21:22:55.644Z,21.77
2023-05-23T21:25:22.154Z,20.37
2023-05-23T21:27:48.726Z,21.27
2023-05-23T21:30:15.523Z,21.57
2023-05-23T21:32:43.494Z,21.20
2023-05-23T21:35:10.370Z,20.63
2023-05-23T21:37:36.869Z,20.37
2023-05-23T21:40:03.689Z,20.43
2023-05-23T21:42:31.010Z,20.27
2023-05-23T21:44:57.573Z,18.50
2023-05-23T21:47:25.129Z,19.50
2023-05-23T21:49:51.763Z,20.30
2023-05-23T21:52:18.401Z,19.50
2023-05-23T21:54:46.814Z,19.97
2023-05-23T21:57:13.374Z,17.70
2023-05-23T21:59:39.885Z,18.23
2023-05-23T22:02:06.464Z,17.30
2023-05-23T22:04:33.591Z,18.37
2023-05-23T22:07:00.467Z,17.60
2023-05-23T22:09:26.957Z,18.67
2023-05-23T22:11:53.631Z,19.07
2023-05-23T22:14:20.122Z,18.30
2023-05-23T22:16:46.869Z,18.40
2023-05-23T22:19:17.849Z,18.63
2023-05-23T22:21:44.436Z,17.40
2023-05-23T22:24:11.080Z,18.17
2023-05-23T22:26:39.134Z,18.90
2023-05-23T22:29:06.903Z,18.57
2023-05-23T22:31:33.527Z,17.57
2023-05-23T22:34:00.076Z,18.10
2023-05-23T22:36:26.780Z,17.70
2023-05-23T22:38:53.262Z,17.67
2023-05-23T22:41:19.890Z,18.37
2023-05-23T22:43:46.778Z,18.07
2023-05-23T22:46:13.476Z,18.50
2023-05-23T22:48:40.015Z,18.67
2023-05-23T22:51:07.887Z,18.17
2023-05-23T22:53:34.513Z,18.50
2023-05-23T22:56:00.985Z,18.50
2023-05-23T22:58:27.673Z,18.07
2023-05-23T23:00:54.164Z,19.23
2023-05-23T23:03:20.845Z,18.03
2023-05-23T23:05:47.576Z,17.17
2023-05-23T23:08:16.004Z,16.90
2023-05-23T23:10:43.903Z,17.47
2023-05-23T23:13:13.494Z,17.77
2023-05-23T23:15:40.506Z,17.83
2023-05-23T23:18:07.699Z,16.57
2023-05-23T23:20:34.501Z,17.73
2023-05-23T23:23:01.719Z,18.20
2023-05-23T23:25:28.291Z,16.47
2023-05-23T23:27:54.777Z,17.60
2023-05-23T23:30:21.430Z,16.40
2023-05-23T23:32:48.021Z,16.93
2023-05-23T23:35:14.566Z,16.83
2023-05-23T23:37:41.260Z,16.33
2023-05-23T23:40:08.659Z,16.17
2023-05-23T23:42:35.330Z,15.57
2023-05-23T23:45:01.960Z,15.60
2023-05-23T23:47:28.538Z,15.70
2023-05-23T23:49:55.098Z,16.27
2023-05-23T23:52:21.590Z,15.30
2023-05-23T23:54:48.120Z,15.27
2023-05-23T23:57:14.724Z,14.53
2023-05-23T23:59:41.743Z,15.80
